Startpagina
METAR-TAF:

METAR-TAF

Vliegvelden :

Rexburg-Madison County Airport

Rexburg, Idaho, Verenigde Staten

breedte: 43-49-54N, lengte: 111-48-22W, hoogte: 1481 m

Actueel weer

Dit bericht is 18 minuten geleden gemaakt, om 17:36 UTC
Weinig wind
Temperatuur 1°C
Vochtigheid 93%
Druk 1019 hPa
Zicht: 9.7 km
Gebroken wolken op 200 ft
Geheel bewolkt op 2000 ft
nevel

METAR: KRXE 261736Z AUTO 00000KT 6SM BR BKN002 OVC020 01/00 A3008 RMK AO2 T00110000

Tijdstip: 10:54 (17:54 UTC)


TAF: ontbreekt

Waarnemingen en weersverwachtingen van meer dan 4000 vliegvelden (METAR en TAF).

De beschikbare stations zijn de gele en rode punten op de kaart.

Ga met uw muis naar het station om de naam te zien.

Klik dan om waarnemingen en weersverwachtingen te zien.

kaart wijzigen: klik op de groene knoppen met een zwart kruis om in te zoomen, op de groene knop met een streepje om uit te zoomen of op de groene pijlen voor aangrenzende kaarten.


METAR-TAF: